sensor_id;sensor_type;location;lat;lon;timestamp;P1;durP1;ratioP1;P2;durP2;ratioP2
13122;SDS011;6627;50.920;12.050;2023-05-07T00:02:06;20.17;;;16.70;;
13122;SDS011;6627;50.920;12.050;2023-05-07T00:04:41;22.87;;;17.77;;
13122;SDS011;6627;50.920;12.050;2023-05-07T00:07:15;20.93;;;17.07;;
13122;SDS011;6627;50.920;12.050;2023-05-07T00:09:43;21.37;;;18.03;;
13122;SDS011;6627;50.920;12.050;2023-05-07T00:12:18;21.50;;;17.77;;
13122;SDS011;6627;50.920;12.050;2023-05-07T00:14:52;20.53;;;15.97;;
13122;SDS011;6627;50.920;12.050;2023-05-07T00:17:26;21.63;;;16.97;;
13122;SDS011;6627;50.920;12.050;2023-05-07T00:20:03;21.07;;;17.73;;
13122;SDS011;6627;50.920;12.050;2023-05-07T00:22:34;19.77;;;16.30;;
13122;SDS011;6627;50.920;12.050;2023-05-07T00:25:08;20.00;;;16.53;;
13122;SDS011;6627;50.920;12.050;2023-05-07T00:27:42;19.83;;;16.17;;
13122;SDS011;6627;50.920;12.050;2023-05-07T00:30:16;22.83;;;15.23;;
13122;SDS011;6627;50.920;12.050;2023-05-07T00:32:47;20.20;;;16.00;;
13122;SDS011;6627;50.920;12.050;2023-05-07T00:35:24;18.87;;;15.43;;
13122;SDS011;6627;50.920;12.050;2023-05-07T00:37:51;17.93;;;15.33;;
13122;SDS011;6627;50.920;12.050;2023-05-07T00:40:24;19.33;;;15.40;;
13122;SDS011;6627;50.920;12.050;2023-05-07T00:42:56;19.10;;;15.13;;
13122;SDS011;6627;50.920;12.050;2023-05-07T00:45:29;16.97;;;14.80;;
13122;SDS011;6627;50.920;12.050;2023-05-07T00:48:01;17.40;;;14.23;;
13122;SDS011;6627;50.920;12.050;2023-05-07T00:50:34;18.00;;;14.13;;
13122;SDS011;6627;50.920;12.050;2023-05-07T00:53:02;18.67;;;13.53;;
13122;SDS011;6627;50.920;12.050;2023-05-07T00:55:34;17.10;;;13.10;;
13122;SDS011;6627;50.920;12.050;2023-05-07T00:58:07;18.53;;;14.20;;
13122;SDS011;6627;50.920;12.050;2023-05-07T01:00:41;16.83;;;13.53;;
13122;SDS011;6627;50.920;12.050;2023-05-07T01:03:09;15.77;;;12.63;;
13122;SDS011;6627;50.920;12.050;2023-05-07T01:05:41;18.23;;;13.20;;
13122;SDS011;6627;50.920;12.050;2023-05-07T01:08:17;15.23;;;13.20;;
13122;SDS011;6627;50.920;12.050;2023-05-07T01:10:54;12.73;;;11.10;;
13122;SDS011;6627;50.920;12.050;2023-05-07T01:13:27;13.13;;;11.67;;
13122;SDS011;6627;50.920;12.050;2023-05-07T01:16:13;12.50;;;10.67;;
13122;SDS011;6627;50.920;12.050;2023-05-07T01:18:46;12.60;;;11.30;;
13122;SDS011;6627;50.920;12.050;2023-05-07T01:21:19;14.63;;;11.53;;
13122;SDS011;6627;50.920;12.050;2023-05-07T01:24:11;13.47;;;11.60;;
13122;SDS011;6627;50.920;12.050;2023-05-07T01:26:47;13.07;;;10.83;;
13122;SDS011;6627;50.920;12.050;2023-05-07T01:29:19;13.00;;;11.27;;
13122;SDS011;6627;50.920;12.050;2023-05-07T01:31:52;14.83;;;10.97;;
13122;SDS011;6627;50.920;12.050;2023-05-07T01:34:27;12.77;;;10.80;;
13122;SDS011;6627;50.920;12.050;2023-05-07T01:37:04;13.67;;;11.27;;
13122;SDS011;6627;50.920;12.050;2023-05-07T01:39:39;15.90;;;12.60;;
13122;SDS011;6627;50.920;12.050;2023-05-07T01:42:14;15.70;;;12.40;;
13122;SDS011;6627;50.920;12.050;2023-05-07T01:44:45;14.77;;;12.37;;
13122;SDS011;6627;50.920;12.050;2023-05-07T01:47:16;16.00;;;11.97;;
13122;SDS011;6627;50.920;12.050;2023-05-07T01:50:04;14.63;;;12.50;;
13122;SDS011;6627;50.920;12.050;2023-05-07T01:52:40;14.27;;;12.60;;
13122;SDS011;6627;50.920;12.050;2023-05-07T01:55:22;16.20;;;13.13;;
13122;SDS011;6627;50.920;12.050;2023-05-07T01:57:54;16.10;;;12.27;;
13122;SDS011;6627;50.920;12.050;2023-05-07T02:00:24;15.40;;;13.10;;
13122;SDS011;6627;50.920;12.050;2023-05-07T02:02:58;15.63;;;12.90;;
13122;SDS011;6627;50.920;12.050;2023-05-07T02:05:29;14.57;;;12.20;;
13122;SDS011;6627;50.920;12.050;2023-05-07T02:08:00;15.00;;;13.40;;
13122;SDS011;6627;50.920;12.050;2023-05-07T02:10:38;16.57;;;13.70;;
13122;SDS011;6627;50.920;12.050;2023-05-07T02:13:09;14.20;;;12.70;;
13122;SDS011;6627;50.920;12.050;2023-05-07T02:15:41;15.60;;;13.77;;
13122;SDS011;6627;50.920;12.050;2023-05-07T02:18:16;14.17;;;12.67;;
13122;SDS011;6627;50.920;12.050;2023-05-07T02:20:49;15.73;;;12.77;;
13122;SDS011;6627;50.920;12.050;2023-05-07T02:23:22;15.50;;;13.67;;
13122;SDS011;6627;50.920;12.050;2023-05-07T02:25:54;16.30;;;13.43;;
13122;SDS011;6627;50.920;12.050;2023-05-07T02:28:27;17.37;;;14.10;;
13122;SDS011;6627;50.920;12.050;2023-05-07T02:30:59;15.00;;;12.77;;
13122;SDS011;6627;50.920;12.050;2023-05-07T02:33:33;16.57;;;13.10;;
13122;SDS011;6627;50.920;12.050;2023-05-07T02:36:08;14.87;;;13.07;;
13122;SDS011;6627;50.920;12.050;2023-05-07T02:38:41;15.23;;;13.43;;
13122;SDS011;6627;50.920;12.050;2023-05-07T02:41:19;17.00;;;13.23;;
13122;SDS011;6627;50.920;12.050;2023-05-07T02:43:49;16.23;;;12.93;;
13122;SDS011;6627;50.920;12.050;2023-05-07T02:46:19;23.20;;;17.20;;
13122;SDS011;6627;50.920;12.050;2023-05-07T02:49:05;20.23;;;17.30;;
13122;SDS011;6627;50.920;12.050;2023-05-07T02:51:35;21.07;;;18.30;;
13122;SDS011;6627;50.920;12.050;2023-05-07T02:54:06;27.23;;;21.37;;
13122;SDS011;6627;50.920;12.050;2023-05-07T02:56:37;23.87;;;20.10;;
13122;SDS011;6627;50.920;12.050;2023-05-07T02:59:09;23.97;;;20.40;;
13122;SDS011;6627;50.920;12.050;2023-05-07T03:01:56;25.47;;;20.67;;
13122;SDS011;6627;50.920;12.050;2023-05-07T03:04:26;26.47;;;20.97;;
13122;SDS011;6627;50.920;12.050;2023-05-07T03:06:56;25.53;;;20.27;;
13122;SDS011;6627;50.920;12.050;2023-05-07T03:09:25;23.87;;;20.60;;
13122;SDS011;6627;50.920;12.050;2023-05-07T03:12:05;27.10;;;22.07;;
13122;SDS011;6627;50.920;12.050;2023-05-07T03:14:34;27.57;;;20.93;;
13122;SDS011;6627;50.920;12.050;2023-05-07T03:17:06;25.83;;;21.40;;
13122;SDS011;6627;50.920;12.050;2023-05-07T03:19:34;24.77;;;20.63;;
13122;SDS011;6627;50.920;12.050;2023-05-07T03:22:06;25.97;;;21.03;;
13122;SDS011;6627;50.920;12.050;2023-05-07T03:24:53;27.70;;;21.17;;
13122;SDS011;6627;50.920;12.050;2023-05-07T03:27:28;25.80;;;20.70;;
13122;SDS011;6627;50.920;12.050;2023-05-07T03:29:59;27.47;;;20.23;;
13122;SDS011;6627;50.920;12.050;2023-05-07T03:32:31;24.70;;;19.83;;
13122;SDS011;6627;50.920;12.050;2023-05-07T03:35:05;25.97;;;20.37;;
13122;SDS011;6627;50.920;12.050;2023-05-07T03:37:38;24.53;;;19.00;;
13122;SDS011;6627;50.920;12.050;2023-05-07T03:40:12;25.47;;;19.30;;
13122;SDS011;6627;50.920;12.050;2023-05-07T03:42:45;21.67;;;18.33;;
13122;SDS011;6627;50.920;12.050;2023-05-07T03:45:20;22.50;;;18.50;;
13122;SDS011;6627;50.920;12.050;2023-05-07T03:47:54;25.03;;;20.03;;
13122;SDS011;6627;50.920;12.050;2023-05-07T03:50:32;23.20;;;19.20;;
13122;SDS011;6627;50.920;12.050;2023-05-07T03:53:05;24.03;;;19.00;;
13122;SDS011;6627;50.920;12.050;2023-05-07T03:55:39;23.87;;;19.73;;
13122;SDS011;6627;50.920;12.050;2023-05-07T03:58:13;23.57;;;18.77;;
13122;SDS011;6627;50.920;12.050;2023-05-07T04:00:46;22.70;;;19.17;;
13122;SDS011;6627;50.920;12.050;2023-05-07T04:03:17;24.20;;;19.23;;
13122;SDS011;6627;50.920;12.050;2023-05-07T04:05:51;24.57;;;19.03;;
13122;SDS011;6627;50.920;12.050;2023-05-07T04:08:20;22.57;;;18.87;;
13122;SDS011;6627;50.920;12.050;2023-05-07T04:10:54;20.97;;;17.97;;
13122;SDS011;6627;50.920;12.050;2023-05-07T04:13:27;23.27;;;18.37;;
13122;SDS011;6627;50.920;12.050;2023-05-07T04:16:02;22.83;;;19.30;;
13122;SDS011;6627;50.920;12.050;2023-05-07T04:18:33;26.03;;;19.27;;
13122;SDS011;6627;50.920;12.050;2023-05-07T04:21:06;25.30;;;19.73;;
13122;SDS011;6627;50.920;12.050;2023-05-07T04:23:42;25.17;;;19.47;;
13122;SDS011;6627;50.920;12.050;2023-05-07T04:26:13;25.63;;;20.20;;
13122;SDS011;6627;50.920;12.050;2023-05-07T04:28:47;25.37;;;21.10;;
13122;SDS011;6627;50.920;12.050;2023-05-07T04:31:15;27.20;;;21.20;;
13122;SDS011;6627;50.920;12.050;2023-05-07T04:33:53;25.30;;;20.03;;
13122;SDS011;6627;50.920;12.050;2023-05-07T04:36:22;24.43;;;20.00;;
13122;SDS011;6627;50.920;12.050;2023-05-07T04:38:56;23.97;;;19.43;;
13122;SDS011;6627;50.920;12.050;2023-05-07T04:41:31;24.57;;;20.80;;
13122;SDS011;6627;50.920;12.050;2023-05-07T04:44:04;26.07;;;20.40;;
13122;SDS011;6627;50.920;12.050;2023-05-07T04:46:37;25.27;;;20.63;;
13122;SDS011;6627;50.920;12.050;2023-05-07T04:49:10;25.23;;;20.17;;
13122;SDS011;6627;50.920;12.050;2023-05-07T04:51:41;25.57;;;19.70;;
13122;SDS011;6627;50.920;12.050;2023-05-07T04:54:22;24.90;;;20.63;;
13122;SDS011;6627;50.920;12.050;2023-05-07T04:56:50;24.73;;;20.37;;
13122;SDS011;6627;50.920;12.050;2023-05-07T04:59:25;23.97;;;19.73;;
13122;SDS011;6627;50.920;12.050;2023-05-07T05:01:54;23.23;;;18.73;;
13122;SDS011;6627;50.920;12.050;2023-05-07T05:04:23;24.97;;;19.10;;
13122;SDS011;6627;50.920;12.050;2023-05-07T05:06:55;23.17;;;18.90;;
13122;SDS011;6627;50.920;12.050;2023-05-07T05:09:27;23.67;;;18.93;;
13122;SDS011;6627;50.920;12.050;2023-05-07T05:12:02;23.40;;;19.23;;
13122;SDS011;6627;50.920;12.050;2023-05-07T05:14:36;24.73;;;19.30;;
13122;SDS011;6627;50.920;12.050;2023-05-07T05:17:06;23.63;;;19.43;;
13122;SDS011;6627;50.920;12.050;2023-05-07T05:19:35;24.87;;;19.50;;
13122;SDS011;6627;50.920;12.050;2023-05-07T05:22:05;24.53;;;20.27;;
13122;SDS011;6627;50.920;12.050;2023-05-07T05:24:37;23.40;;;18.70;;
13122;SDS011;6627;50.920;12.050;2023-05-07T05:27:08;23.83;;;18.37;;
13122;SDS011;6627;50.920;12.050;2023-05-07T05:29:45;21.23;;;18.23;;
13122;SDS011;6627;50.920;12.050;2023-05-07T05:32:17;22.27;;;18.23;;
13122;SDS011;6627;50.920;12.050;2023-05-07T05:34:45;22.53;;;18.27;;
13122;SDS011;6627;50.920;12.050;2023-05-07T05:37:24;23.00;;;17.87;;
13122;SDS011;6627;50.920;12.050;2023-05-07T05:39:57;22.70;;;18.77;;
13122;SDS011;6627;50.920;12.050;2023-05-07T05:42:32;21.23;;;18.07;;
13122;SDS011;6627;50.920;12.050;2023-05-07T05:45:01;22.90;;;19.57;;
13122;SDS011;6627;50.920;12.050;2023-05-07T05:47:30;21.40;;;17.07;;
13122;SDS011;6627;50.920;12.050;2023-05-07T05:50:03;22.80;;;18.43;;
13122;SDS011;6627;50.920;12.050;2023-05-07T05:52:38;22.87;;;19.33;;
13122;SDS011;6627;50.920;12.050;2023-05-07T05:55:15;26.43;;;20.17;;
13122;SDS011;6627;50.920;12.050;2023-05-07T05:57:49;25.67;;;19.67;;
13122;SDS011;6627;50.920;12.050;2023-05-07T06:00:20;25.30;;;20.30;;
13122;SDS011;6627;50.920;12.050;2023-05-07T06:02:51;24.70;;;20.83;;
13122;SDS011;6627;50.920;12.050;2023-05-07T06:05:23;26.73;;;20.70;;
13122;SDS011;6627;50.920;12.050;2023-05-07T06:07:54;22.73;;;19.77;;
13122;SDS011;6627;50.920;12.050;2023-05-07T06:10:28;22.00;;;19.07;;
13122;SDS011;6627;50.920;12.050;2023-05-07T06:13:02;23.03;;;19.47;;
13122;SDS011;6627;50.920;12.050;2023-05-07T06:15:36;23.83;;;20.63;;
13122;SDS011;6627;50.920;12.050;2023-05-07T06:18:06;21.90;;;19.27;;
13122;SDS011;6627;50.920;12.050;2023-05-07T06:20:41;25.10;;;19.80;;
13122;SDS011;6627;50.920;12.050;2023-05-07T06:23:11;21.83;;;18.57;;
13122;SDS011;6627;50.920;12.050;2023-05-07T06:25:48;21.33;;;18.67;;
13122;SDS011;6627;50.920;12.050;2023-05-07T06:28:22;21.70;;;17.93;;
13122;SDS011;6627;50.920;12.050;2023-05-07T06:31:11;21.40;;;17.97;;
13122;SDS011;6627;50.920;12.050;2023-05-07T06:33:44;19.47;;;16.57;;
13122;SDS011;6627;50.920;12.050;2023-05-07T06:36:15;21.90;;;16.97;;
13122;SDS011;6627;50.920;12.050;2023-05-07T06:38:55;18.47;;;16.30;;
13122;SDS011;6627;50.920;12.050;2023-05-07T06:41:29;20.17;;;16.97;;
13122;SDS011;6627;50.920;12.050;2023-05-07T06:44:00;23.40;;;17.67;;
13122;SDS011;6627;50.920;12.050;2023-05-07T06:46:31;19.33;;;16.70;;
13122;SDS011;6627;50.920;12.050;2023-05-07T06:49:05;18.80;;;16.57;;
13122;SDS011;6627;50.920;12.050;2023-05-07T06:51:34;19.77;;;16.80;;
13122;SDS011;6627;50.920;12.050;2023-05-07T06:54:20;19.37;;;17.23;;
13122;SDS011;6627;50.920;12.050;2023-05-07T06:56:58;20.10;;;15.80;;
13122;SDS011;6627;50.920;12.050;2023-05-07T06:59:45;19.93;;;15.83;;
13122;SDS011;6627;50.920;12.050;2023-05-07T07:02:33;16.70;;;14.47;;
13122;SDS011;6627;50.920;12.050;2023-05-07T07:05:07;17.90;;;13.53;;
13122;SDS011;6627;50.920;12.050;2023-05-07T07:07:36;18.77;;;15.60;;
13122;SDS011;6627;50.920;12.050;2023-05-07T07:10:18;20.40;;;16.73;;
13122;SDS011;6627;50.920;12.050;2023-05-07T07:12:47;18.80;;;15.60;;
13122;SDS011;6627;50.920;12.050;2023-05-07T07:15:19;20.03;;;15.23;;
13122;SDS011;6627;50.920;12.050;2023-05-07T07:17:55;17.83;;;15.23;;
13122;SDS011;6627;50.920;12.050;2023-05-07T07:20:41;18.20;;;15.33;;
13122;SDS011;6627;50.920;12.050;2023-05-07T07:23:16;20.90;;;15.20;;
13122;SDS011;6627;50.920;12.050;2023-05-07T07:25:51;17.27;;;14.90;;
13122;SDS011;6627;50.920;12.050;2023-05-07T07:28:33;15.93;;;13.60;;
13122;SDS011;6627;50.920;12.050;2023-05-07T07:31:08;16.67;;;13.70;;
13122;SDS011;6627;50.920;12.050;2023-05-07T07:33:46;18.80;;;13.93;;
13122;SDS011;6627;50.920;12.050;2023-05-07T07:36:19;18.13;;;13.77;;
13122;SDS011;6627;50.920;12.050;2023-05-07T07:38:55;17.00;;;13.80;;
13122;SDS011;6627;50.920;12.050;2023-05-07T07:41:26;15.33;;;13.67;;
13122;SDS011;6627;50.920;12.050;2023-05-07T07:43:59;14.83;;;12.43;;
13122;SDS011;6627;50.920;12.050;2023-05-07T07:46:32;14.53;;;12.43;;
13122;SDS011;6627;50.920;12.050;2023-05-07T07:49:06;13.60;;;12.20;;
13122;SDS011;6627;50.920;12.050;2023-05-07T07:51:37;14.33;;;12.10;;
13122;SDS011;6627;50.920;12.050;2023-05-07T07:54:18;13.67;;;12.23;;
13122;SDS011;6627;50.920;12.050;2023-05-07T07:56:48;16.40;;;12.33;;
13122;SDS011;6627;50.920;12.050;2023-05-07T07:59:28;14.80;;;12.47;;
13122;SDS011;6627;50.920;12.050;2023-05-07T08:01:58;14.00;;;12.57;;
13122;SDS011;6627;50.920;12.050;2023-05-07T08:04:33;14.40;;;12.40;;
13122;SDS011;6627;50.920;12.050;2023-05-07T08:07:22;15.57;;;13.47;;
13122;SDS011;6627;50.920;12.050;2023-05-07T08:09:56;14.67;;;13.17;;
13122;SDS011;6627;50.920;12.050;2023-05-07T08:12:42;16.13;;;13.67;;
13122;SDS011;6627;50.920;12.050;2023-05-07T08:15:17;15.53;;;12.80;;
13122;SDS011;6627;50.920;12.050;2023-05-07T08:17:46;14.53;;;12.70;;
13122;SDS011;6627;50.920;12.050;2023-05-07T08:20:20;16.13;;;12.53;;
13122;SDS011;6627;50.920;12.050;2023-05-07T08:22:51;15.10;;;13.50;;
13122;SDS011;6627;50.920;12.050;2023-05-07T08:25:28;13.33;;;11.73;;
13122;SDS011;6627;50.920;12.050;2023-05-07T08:28:00;13.90;;;12.50;;
13122;SDS011;6627;50.920;12.050;2023-05-07T08:30:30;14.40;;;11.87;;
13122;SDS011;6627;50.920;12.050;2023-05-07T08:33:08;13.90;;;12.13;;
13122;SDS011;6627;50.920;12.050;2023-05-07T08:35:43;13.10;;;11.67;;
13122;SDS011;6627;50.920;12.050;2023-05-07T08:38:13;14.10;;;12.60;;
13122;SDS011;6627;50.920;12.050;2023-05-07T08:40:43;14.47;;;12.23;;
13122;SDS011;6627;50.920;12.050;2023-05-07T08:43:19;12.47;;;11.03;;
13122;SDS011;6627;50.920;12.050;2023-05-07T08:45:55;11.90;;;10.70;;
13122;SDS011;6627;50.920;12.050;2023-05-07T08:48:37;11.90;;;10.60;;
13122;SDS011;6627;50.920;12.050;2023-05-07T08:51:13;14.23;;;11.90;;
13122;SDS011;6627;50.920;12.050;2023-05-07T08:53:54;15.07;;;11.93;;
13122;SDS011;6627;50.920;12.050;2023-05-07T08:56:29;13.63;;;11.20;;
13122;SDS011;6627;50.920;12.050;2023-05-07T08:59:03;12.63;;;11.33;;
13122;SDS011;6627;50.920;12.050;2023-05-07T09:01:37;15.53;;;12.30;;
13122;SDS011;6627;50.920;12.050;2023-05-07T09:04:11;13.53;;;12.13;;
13122;SDS011;6627;50.920;12.050;2023-05-07T09:06:41;14.73;;;12.00;;
13122;SDS011;6627;50.920;12.050;2023-05-07T09:09:09;12.27;;;10.87;;
13122;SDS011;6627;50.920;12.050;2023-05-07T09:11:46;13.03;;;11.63;;
13122;SDS011;6627;50.920;12.050;2023-05-07T09:14:23;14.30;;;12.43;;
13122;SDS011;6627;50.920;12.050;2023-05-07T09:16:58;13.57;;;11.70;;
13122;SDS011;6627;50.920;12.050;2023-05-07T09:19:27;14.30;;;12.13;;
13122;SDS011;6627;50.920;12.050;2023-05-07T09:22:04;12.57;;;10.97;;
13122;SDS011;6627;50.920;12.050;2023-05-07T09:24:34;12.60;;;11.20;;
13122;SDS011;6627;50.920;12.050;2023-05-07T09:27:08;11.30;;;10.17;;
13122;SDS011;6627;50.920;12.050;2023-05-07T09:29:46;13.30;;;11.60;;
13122;SDS011;6627;50.920;12.050;2023-05-07T09:32:20;12.43;;;11.00;;
13122;SDS011;6627;50.920;12.050;2023-05-07T09:34:49;14.83;;;12.53;;
13122;SDS011;6627;50.920;12.050;2023-05-07T09:37:25;12.80;;;11.40;;
13122;SDS011;6627;50.920;12.050;2023-05-07T09:39:56;12.80;;;11.33;;
13122;SDS011;6627;50.920;12.050;2023-05-07T09:42:30;12.03;;;10.73;;
13122;SDS011;6627;50.920;12.050;2023-05-07T09:45:06;11.50;;;10.30;;
13122;SDS011;6627;50.920;12.050;2023-05-07T09:47:40;11.07;;;9.80;;
13122;SDS011;6627;50.920;12.050;2023-05-07T09:50:18;13.60;;;11.20;;
13122;SDS011;6627;50.920;12.050;2023-05-07T09:52:58;12.53;;;10.83;;
13122;SDS011;6627;50.920;12.050;2023-05-07T09:55:37;15.50;;;11.70;;
13122;SDS011;6627;50.920;12.050;2023-05-07T09:58:20;11.97;;;10.67;;
13122;SDS011;6627;50.920;12.050;2023-05-07T10:00:52;11.30;;;10.10;;
13122;SDS011;6627;50.920;12.050;2023-05-07T10:03:36;12.37;;;10.00;;
13122;SDS011;6627;50.920;12.050;2023-05-07T10:06:11;10.70;;;9.70;;
13122;SDS011;6627;50.920;12.050;2023-05-07T10:08:43;10.87;;;9.77;;
13122;SDS011;6627;50.920;12.050;2023-05-07T10:11:16;11.47;;;8.90;;
13122;SDS011;6627;50.920;12.050;2023-05-07T10:13:52;11.20;;;9.90;;
13122;SDS011;6627;50.920;12.050;2023-05-07T10:16:31;10.57;;;9.47;;
13122;SDS011;6627;50.920;12.050;2023-05-07T10:19:02;14.80;;;9.70;;
13122;SDS011;6627;50.920;12.050;2023-05-07T10:21:34;11.03;;;9.93;;
13122;SDS011;6627;50.920;12.050;2023-05-07T10:24:19;11.17;;;10.07;;
13122;SDS011;6627;50.920;12.050;2023-05-07T10:26:58;11.67;;;10.47;;
13122;SDS011;6627;50.920;12.050;2023-05-07T10:29:37;10.83;;;9.67;;
13122;SDS011;6627;50.920;12.050;2023-05-07T10:32:31;11.07;;;9.97;;
13122;SDS011;6627;50.920;12.050;2023-05-07T10:35:14;11.47;;;10.30;;
13122;SDS011;6627;50.920;12.050;2023-05-07T10:37:56;11.27;;;10.13;;
13122;SDS011;6627;50.920;12.050;2023-05-07T10:40:38;11.00;;;9.83;;
13122;SDS011;6627;50.920;12.050;2023-05-07T10:43:20;10.33;;;9.33;;
13122;SDS011;6627;50.920;12.050;2023-05-07T10:46:09;10.90;;;9.80;;
13122;SDS011;6627;50.920;12.050;2023-05-07T10:49:08;9.73;;;8.83;;
13122;SDS011;6627;50.920;12.050;2023-05-07T10:51:53;9.87;;;8.87;;
13122;SDS011;6627;50.920;12.050;2023-05-07T11:01:04;10.23;;;8.60;;
13122;SDS011;6627;50.920;12.050;2023-05-07T11:04:12;10.30;;;9.30;;
13122;SDS011;6627;50.920;12.050;2023-05-07T11:06:56;9.53;;;8.60;;
13122;SDS011;6627;50.920;12.050;2023-05-07T11:09:59;9.20;;;8.30;;
13122;SDS011;6627;50.920;12.050;2023-05-07T11:12:47;10.07;;;8.43;;
13122;SDS011;6627;50.920;12.050;2023-05-07T11:15:42;9.60;;;8.67;;
13122;SDS011;6627;50.920;12.050;2023-05-07T11:18:19;9.27;;;8.37;;
13122;SDS011;6627;50.920;12.050;2023-05-07T11:20:52;9.43;;;8.53;;
13122;SDS011;6627;50.920;12.050;2023-05-07T11:26:41;9.97;;;8.97;;
13122;SDS011;6627;50.920;12.050;2023-05-07T11:29:20;9.37;;;8.40;;
13122;SDS011;6627;50.920;12.050;2023-05-07T11:32:07;10.37;;;8.17;;
13122;SDS011;6627;50.920;12.050;2023-05-07T11:34:47;9.37;;;8.37;;
13122;SDS011;6627;50.920;12.050;2023-05-07T11:37:21;9.70;;;8.70;;
13122;SDS011;6627;50.920;12.050;2023-05-07T11:40:05;10.23;;;9.23;;
13122;SDS011;6627;50.920;12.050;2023-05-07T11:42:40;9.93;;;8.63;;
13122;SDS011;6627;50.920;12.050;2023-05-07T11:45:27;9.33;;;8.43;;
13122;SDS011;6627;50.920;12.050;2023-05-07T11:48:04;9.30;;;8.17;;
13122;SDS011;6627;50.920;12.050;2023-05-07T11:50:51;8.27;;;7.47;;
13122;SDS011;6627;50.920;12.050;2023-05-07T11:53:24;8.67;;;7.80;;
13122;SDS011;6627;50.920;12.050;2023-05-07T11:55:58;9.23;;;7.43;;
13122;SDS011;6627;50.920;12.050;2023-05-07T11:58:33;7.70;;;6.90;;
13122;SDS011;6627;50.920;12.050;2023-05-07T12:01:08;8.93;;;7.80;;
13122;SDS011;6627;50.920;12.050;2023-05-07T12:03:43;9.23;;;7.60;;
13122;SDS011;6627;50.920;12.050;2023-05-07T12:06:19;8.03;;;7.03;;
13122;SDS011;6627;50.920;12.050;2023-05-07T12:08:57;7.47;;;6.77;;
13122;SDS011;6627;50.920;12.050;2023-05-07T12:11:32;7.90;;;7.10;;
13122;SDS011;6627;50.920;12.050;2023-05-07T12:14:12;7.27;;;6.57;;
13122;SDS011;6627;50.920;12.050;2023-05-07T12:16:58;7.47;;;6.73;;
13122;SDS011;6627;50.920;12.050;2023-05-07T12:19:43;7.53;;;6.73;;
13122;SDS011;6627;50.920;12.050;2023-05-07T12:22:21;7.93;;;7.13;;
13122;SDS011;6627;50.920;12.050;2023-05-07T12:25:08;7.10;;;6.40;;
13122;SDS011;6627;50.920;12.050;2023-05-07T12:27:44;7.00;;;6.40;;
13122;SDS011;6627;50.920;12.050;2023-05-07T12:30:38;7.40;;;6.40;;
13122;SDS011;6627;50.920;12.050;2023-05-07T12:33:07;6.87;;;6.17;;
13122;SDS011;6627;50.920;12.050;2023-05-07T12:35:45;7.13;;;6.43;;
13122;SDS011;6627;50.920;12.050;2023-05-07T12:38:36;6.10;;;5.50;;
13122;SDS011;6627;50.920;12.050;2023-05-07T12:41:25;6.50;;;5.80;;
13122;SDS011;6627;50.920;12.050;2023-05-07T12:44:14;7.30;;;6.17;;
13122;SDS011;6627;50.920;12.050;2023-05-07T12:46:49;6.63;;;5.77;;
13122;SDS011;6627;50.920;12.050;2023-05-07T12:49:34;7.10;;;6.43;;
13122;SDS011;6627;50.920;12.050;2023-05-07T12:52:15;6.80;;;6.20;;
13122;SDS011;6627;50.920;12.050;2023-05-07T12:54:57;6.90;;;6.30;;
13122;SDS011;6627;50.920;12.050;2023-05-07T12:57:45;10.07;;;9.00;;
13122;SDS011;6627;50.920;12.050;2023-05-07T13:00:35;7.70;;;6.17;;
13122;SDS011;6627;50.920;12.050;2023-05-07T13:03:15;6.67;;;6.07;;
13122;SDS011;6627;50.920;12.050;2023-05-07T13:06:07;6.50;;;5.90;;
13122;SDS011;6627;50.920;12.050;2023-05-07T13:08:46;5.90;;;5.30;;
13122;SDS011;6627;50.920;12.050;2023-05-07T13:11:24;5.40;;;4.90;;
13122;SDS011;6627;50.920;12.050;2023-05-07T13:13:59;5.57;;;5.07;;
13122;SDS011;6627;50.920;12.050;2023-05-07T13:16:40;5.07;;;4.67;;
13122;SDS011;6627;50.920;12.050;2023-05-07T13:19:15;4.80;;;4.40;;
13122;SDS011;6627;50.920;12.050;2023-05-07T13:21:59;5.70;;;5.20;;
13122;SDS011;6627;50.920;12.050;2023-05-07T13:24:38;5.90;;;5.10;;
13122;SDS011;6627;50.920;12.050;2023-05-07T13:27:24;5.90;;;5.37;;
13122;SDS011;6627;50.920;12.050;2023-05-07T13:30:06;6.43;;;5.83;;
13122;SDS011;6627;50.920;12.050;2023-05-07T13:32:39;5.60;;;5.10;;
13122;SDS011;6627;50.920;12.050;2023-05-07T13:35:09;5.27;;;4.77;;
13122;SDS011;6627;50.920;12.050;2023-05-07T13:37:53;5.30;;;4.80;;
13122;SDS011;6627;50.920;12.050;2023-05-07T13:40:33;5.50;;;5.00;;
13122;SDS011;6627;50.920;12.050;2023-05-07T13:43:08;5.83;;;5.33;;
13122;SDS011;6627;50.920;12.050;2023-05-07T13:45:42;5.30;;;4.73;;
13122;SDS011;6627;50.920;12.050;2023-05-07T13:48:25;5.80;;;5.20;;
13122;SDS011;6627;50.920;12.050;2023-05-07T13:51:11;5.83;;;5.13;;
13122;SDS011;6627;50.920;12.050;2023-05-07T13:53:51;6.87;;;6.27;;
13122;SDS011;6627;50.920;12.050;2023-05-07T13:56:39;7.10;;;6.50;;
13122;SDS011;6627;50.920;12.050;2023-05-07T13:59:24;7.47;;;6.77;;
13122;SDS011;6627;50.920;12.050;2023-05-07T14:02:11;7.23;;;6.53;;
13122;SDS011;6627;50.920;12.050;2023-05-07T14:04:49;7.63;;;6.93;;
13122;SDS011;6627;50.920;12.050;2023-05-07T14:07:27;7.53;;;6.83;;
13122;SDS011;6627;50.920;12.050;2023-05-07T14:10:06;7.00;;;6.40;;
13122;SDS011;6627;50.920;12.050;2023-05-07T14:12:41;8.10;;;7.30;;
13122;SDS011;6627;50.920;12.050;2023-05-07T14:15:27;7.43;;;6.83;;
13122;SDS011;6627;50.920;12.050;2023-05-07T14:17:59;7.93;;;7.23;;
13122;SDS011;6627;50.920;12.050;2023-05-07T14:20:37;8.37;;;7.20;;
13122;SDS011;6627;50.920;12.050;2023-05-07T14:23:24;6.43;;;5.83;;
13122;SDS011;6627;50.920;12.050;2023-05-07T14:26:06;6.50;;;5.90;;
13122;SDS011;6627;50.920;12.050;2023-05-07T14:28:42;7.30;;;6.60;;
13122;SDS011;6627;50.920;12.050;2023-05-07T14:31:23;6.70;;;6.00;;
13122;SDS011;6627;50.920;12.050;2023-05-07T14:33:56;7.43;;;6.73;;
13122;SDS011;6627;50.920;12.050;2023-05-07T14:36:27;7.57;;;6.87;;
13122;SDS011;6627;50.920;12.050;2023-05-07T14:38:59;7.50;;;6.83;;
13122;SDS011;6627;50.920;12.050;2023-05-07T14:41:35;6.90;;;6.20;;
13122;SDS011;6627;50.920;12.050;2023-05-07T14:44:07;6.70;;;6.00;;
13122;SDS011;6627;50.920;12.050;2023-05-07T14:46:45;6.10;;;5.50;;
13122;SDS011;6627;50.920;12.050;2023-05-07T14:49:21;7.03;;;6.43;;
13122;SDS011;6627;50.920;12.050;2023-05-07T14:52:06;7.33;;;6.70;;
13122;SDS011;6627;50.920;12.050;2023-05-07T14:54:41;6.60;;;6.00;;
13122;SDS011;6627;50.920;12.050;2023-05-07T14:57:21;7.07;;;6.10;;
13122;SDS011;6627;50.920;12.050;2023-05-07T15:00:09;7.73;;;6.37;;
13122;SDS011;6627;50.920;12.050;2023-05-07T15:02:42;17.80;;;15.97;;
13122;SDS011;6627;50.920;12.050;2023-05-07T15:05:18;54.70;;;45.20;;
13122;SDS011;6627;50.920;12.050;2023-05-07T15:07:52;11.77;;;10.53;;
13122;SDS011;6627;50.920;12.050;2023-05-07T15:10:35;6.00;;;5.50;;
13122;SDS011;6627;50.920;12.050;2023-05-07T15:13:25;8.30;;;6.10;;
13122;SDS011;6627;50.920;12.050;2023-05-07T15:16:09;7.00;;;6.40;;
13122;SDS011;6627;50.920;12.050;2023-05-07T15:18:38;7.53;;;6.87;;
13122;SDS011;6627;50.920;12.050;2023-05-07T15:21:09;8.37;;;7.67;;
13122;SDS011;6627;50.920;12.050;2023-05-07T15:23:46;7.90;;;7.20;;
13122;SDS011;6627;50.920;12.050;2023-05-07T15:26:21;7.73;;;7.13;;
13122;SDS011;6627;50.920;12.050;2023-05-07T15:28:50;8.83;;;7.97;;
13122;SDS011;6627;50.920;12.050;2023-05-07T15:31:24;8.30;;;7.50;;